createdAt,value
2019-02-21T00:02:19.472Z,20.80
2019-02-21T00:04:47.896Z,19.13
2019-02-21T00:07:16.309Z,18.70
2019-02-21T00:09:44.749Z,17.43
2019-02-21T00:12:13.160Z,21.50
2019-02-21T00:14:41.630Z,23.53
2019-02-21T00:17:10.091Z,17.67
2019-02-21T00:19:57.848Z,20.10
2019-02-21T00:22:26.265Z,21.67
2019-02-21T00:24:54.937Z,20.93
2019-02-21T00:27:23.352Z,18.57
2019-02-21T00:29:51.827Z,18.83
2019-02-21T00:32:20.247Z,21.03
2019-02-21T00:34:48.668Z,17.17
2019-02-21T00:37:17.088Z,17.40
2019-02-21T00:39:45.518Z,21.90
2019-02-21T00:42:13.932Z,16.83
2019-02-21T00:44:42.353Z,17.23
2019-02-21T00:47:10.768Z,20.30
2019-02-21T00:49:39.480Z,17.10
2019-02-21T00:52:07.885Z,18.50
2019-02-21T00:54:36.313Z,16.77
2019-02-21T00:57:04.736Z,20.03
2019-02-21T00:59:33.161Z,18.53
2019-02-21T01:02:01.574Z,23.60
2019-02-21T01:04:30.029Z,21.17
2019-02-21T01:06:58.483Z,18.27
2019-02-21T01:09:27.184Z,20.53
2019-02-21T01:11:55.604Z,19.40
2019-02-21T01:14:24.033Z,18.27
2019-02-21T01:16:52.444Z,20.53
2019-02-21T01:19:20.548Z,22.10
2019-02-21T01:21:49.236Z,20.07
2019-02-21T01:24:17.326Z,21.30
2019-02-21T01:26:45.495Z,19.87
2019-02-21T01:29:13.913Z,23.23
2019-02-21T01:31:42.340Z,22.97
2019-02-21T01:34:10.760Z,19.23
2019-02-21T01:36:39.185Z,21.73
2019-02-21T01:39:28.465Z,24.37
2019-02-21T01:41:56.934Z,21.20
2019-02-21T01:44:25.028Z,22.87
2019-02-21T01:46:53.156Z,22.43
2019-02-21T01:49:21.246Z,19.77
2019-02-21T01:51:49.334Z,23.67
2019-02-21T01:54:17.424Z,22.97
2019-02-21T01:56:45.512Z,23.40
2019-02-21T01:59:13.934Z,22.37
2019-02-21T02:01:42.380Z,19.87
2019-02-21T02:04:10.872Z,23.40
2019-02-21T02:06:39.295Z,23.47
2019-02-21T02:09:09.618Z,20.33
2019-02-21T02:11:38.037Z,20.57
2019-02-21T02:14:06.438Z,21.70
2019-02-21T02:16:34.532Z,20.83
2019-02-21T02:19:02.952Z,20.17
2019-02-21T02:21:31.052Z,23.43
2019-02-21T02:23:59.216Z,20.10
2019-02-21T02:26:27.322Z,22.87
2019-02-21T02:28:55.415Z,20.70
2019-02-21T02:31:23.960Z,22.67
2019-02-21T02:33:52.460Z,23.43
2019-02-21T02:36:20.881Z,22.53
2019-02-21T02:38:49.303Z,20.73
2019-02-21T02:41:17.735Z,22.27
2019-02-21T02:43:46.181Z,22.17
2019-02-21T02:46:14.945Z,19.80
2019-02-21T02:48:43.035Z,22.40
2019-02-21T02:51:11.140Z,18.80
2019-02-21T02:53:39.237Z,19.97
2019-02-21T02:56:07.340Z,22.40
2019-02-21T02:58:35.759Z,25.00
2019-02-21T03:01:04.186Z,23.53
2019-02-21T03:03:32.597Z,23.07
2019-02-21T03:06:01.362Z,22.07
2019-02-21T03:08:29.782Z,19.73
2019-02-21T03:10:58.219Z,25.67
2019-02-21T03:13:26.636Z,23.83
2019-02-21T03:15:54.809Z,20.90
2019-02-21T03:18:22.904Z,21.70
2019-02-21T03:20:51.018Z,25.30
2019-02-21T03:23:19.713Z,21.30
2019-02-21T03:25:47.819Z,27.13
2019-02-21T03:28:15.989Z,22.57
2019-02-21T03:30:44.922Z,25.57
2019-02-21T03:33:13.481Z,22.23
2019-02-21T03:35:42.055Z,26.93
2019-02-21T03:38:10.565Z,24.17
2019-02-21T03:40:39.127Z,27.07
2019-02-21T03:43:07.609Z,26.40
2019-02-21T03:45:36.028Z,24.00
2019-02-21T03:48:04.506Z,23.30
2019-02-21T03:50:32.943Z,23.33
2019-02-21T03:53:01.385Z,24.03
2019-02-21T03:55:29.477Z,28.13
2019-02-21T03:57:57.590Z,26.73
2019-02-21T04:00:26.005Z,28.87
2019-02-21T04:02:54.105Z,27.87
2019-02-21T04:05:22.270Z,25.27
2019-02-21T04:07:50.709Z,24.97
2019-02-21T04:10:19.165Z,24.33
2019-02-21T04:12:47.596Z,24.63
2019-02-21T04:15:16.072Z,23.80
2019-02-21T04:17:44.496Z,26.13
2019-02-21T04:20:12.932Z,25.30
2019-02-21T04:22:41.340Z,25.23
2019-02-21T04:25:09.432Z,26.07
2019-02-21T04:27:37.553Z,25.00
2019-02-21T04:30:06.310Z,22.97
2019-02-21T04:32:34.413Z,23.17
2019-02-21T04:35:02.836Z,24.93
2019-02-21T04:37:31.257Z,27.63
2019-02-21T04:39:59.345Z,26.13
2019-02-21T04:42:27.779Z,26.17
2019-02-21T04:44:55.881Z,23.17
2019-02-21T04:47:24.594Z,26.73
2019-02-21T04:49:53.005Z,22.80
2019-02-21T04:52:21.118Z,22.47
2019-02-21T04:54:49.197Z,22.77
2019-02-21T04:57:17.679Z,24.20
2019-02-21T04:59:46.089Z,25.70
2019-02-21T05:02:14.210Z,30.77
2019-02-21T05:04:42.308Z,30.17
2019-02-21T05:07:10.729Z,24.00
2019-02-21T05:09:38.825Z,27.93
2019-02-21T05:12:07.264Z,26.47
2019-02-21T05:14:35.674Z,21.03
2019-02-21T05:17:04.124Z,26.07
2019-02-21T05:19:32.543Z,25.50
2019-02-21T05:22:00.966Z,25.40
2019-02-21T05:24:29.394Z,27.13
2019-02-21T05:26:59.117Z,29.80
2019-02-21T05:29:27.226Z,25.87
2019-02-21T05:32:13.549Z,26.40
2019-02-21T05:34:52.566Z,24.97
2019-02-21T05:37:31.799Z,22.93
2019-02-21T05:40:18.357Z,23.20
2019-02-21T05:42:51.141Z,27.20
2019-02-21T05:45:37.631Z,26.60
2019-02-21T05:48:07.761Z,25.10
2019-02-21T05:50:37.844Z,28.00
2019-02-21T05:56:04.082Z,23.97
2019-02-21T05:58:34.238Z,26.07
2019-02-21T06:01:04.281Z,33.33
2019-02-21T06:03:49.097Z,24.53
2019-02-21T06:06:25.242Z,25.73
2019-02-21T06:09:01.104Z,26.93
2019-02-21T06:11:31.163Z,26.77
2019-02-21T06:14:01.233Z,32.80
2019-02-21T06:16:33.987Z,28.33
2019-02-21T06:19:04.046Z,31.77
2019-02-21T06:21:36.746Z,31.40
2019-02-21T06:24:06.808Z,27.67
2019-02-21T06:26:36.536Z,34.23
2019-02-21T06:29:06.268Z,29.63
2019-02-21T06:31:34.688Z,38.07
2019-02-21T06:34:03.159Z,32.23
2019-02-21T06:36:31.570Z,29.40
2019-02-21T06:39:00.001Z,31.00
2019-02-21T06:41:29.889Z,27.67
2019-02-21T06:43:58.568Z,29.70
2019-02-21T06:46:26.653Z,24.90
2019-02-21T06:48:55.077Z,25.47
2019-02-21T06:51:23.800Z,29.27
2019-02-21T06:53:53.176Z,25.53
2019-02-21T06:56:21.501Z,24.07
2019-02-21T06:58:49.881Z,28.53
2019-02-21T07:01:26.626Z,27.50
2019-02-21T07:03:48.112Z,28.93
2019-02-21T07:06:19.008Z,25.30
2019-02-21T07:08:46.692Z,30.43
2019-02-21T07:11:15.177Z,24.87
2019-02-21T07:13:43.259Z,25.23
2019-02-21T07:16:13.071Z,31.17
2019-02-21T07:18:41.506Z,29.30
2019-02-21T07:21:09.604Z,26.03
2019-02-21T07:23:43.599Z,27.43
2019-02-21T07:26:08.190Z,30.10
2019-02-21T07:28:36.262Z,27.13
2019-02-21T07:31:04.762Z,22.87
2019-02-21T07:33:33.185Z,25.80
2019-02-21T07:36:01.664Z,28.00
2019-02-21T07:38:30.382Z,28.57
2019-02-21T07:40:58.548Z,26.53
2019-02-21T07:43:26.658Z,25.40
2019-02-21T07:45:54.762Z,25.90
2019-02-21T07:48:22.854Z,26.47
2019-02-21T07:50:51.289Z,24.90
2019-02-21T07:53:19.371Z,28.53
2019-02-21T07:55:47.736Z,29.57
2019-02-21T07:58:15.830Z,32.00
2019-02-21T08:00:44.554Z,26.33
2019-02-21T08:03:13.057Z,27.83
2019-02-21T08:05:41.493Z,31.67
2019-02-21T08:08:09.909Z,30.60
2019-02-21T08:10:38.339Z,32.47
2019-02-21T08:13:06.753Z,32.67
2019-02-21T08:15:34.895Z,32.60
2019-02-21T08:18:03.039Z,29.43
2019-02-21T08:20:35.536Z,29.63
2019-02-21T08:23:03.080Z,29.83
2019-02-21T08:25:31.746Z,34.40
2019-02-21T08:27:59.834Z,28.07
2019-02-21T08:30:29.289Z,34.50
2019-02-21T08:35:54.024Z,26.20
2019-02-21T08:38:23.003Z,31.97
2019-02-21T08:40:53.297Z,27.33
2019-02-21T08:43:21.643Z,26.63
2019-02-21T08:45:50.069Z,38.43
2019-02-21T08:48:18.489Z,32.30
2019-02-21T08:50:46.925Z,29.00
2019-02-21T08:53:15.350Z,31.23
2019-02-21T08:55:43.447Z,29.03
2019-02-21T08:58:11.791Z,32.97
2019-02-21T09:00:40.289Z,33.67
2019-02-21T09:03:08.794Z,32.37
2019-02-21T09:05:37.230Z,27.03
2019-02-21T09:08:05.713Z,26.30
2019-02-21T09:10:33.875Z,29.50
2019-02-21T09:13:02.310Z,29.87
2019-02-21T09:15:30.725Z,30.83
2019-02-21T09:17:59.145Z,34.07
2019-02-21T09:20:27.596Z,27.83
2019-02-21T09:22:56.087Z,26.43
2019-02-21T09:25:24.175Z,24.40
2019-02-21T09:27:52.691Z,31.30
2019-02-21T09:30:21.122Z,27.67
2019-02-21T09:32:49.942Z,24.97
2019-02-21T09:35:18.691Z,25.93
2019-02-21T09:37:47.112Z,26.47
2019-02-21T09:40:15.533Z,23.33
2019-02-21T09:42:43.960Z,23.33
2019-02-21T09:45:20.007Z,24.57
2019-02-21T09:47:48.426Z,22.57
2019-02-21T09:50:16.854Z,22.97
2019-02-21T09:52:45.282Z,22.67
2019-02-21T09:55:16.940Z,25.80
2019-02-21T09:57:45.787Z,22.77
2019-02-21T10:00:18.765Z,24.70
2019-02-21T10:02:47.198Z,20.93
2019-02-21T10:05:15.277Z,31.97
2019-02-21T10:07:43.699Z,22.20
2019-02-21T10:10:14.383Z,27.20
2019-02-21T10:12:42.826Z,26.60
2019-02-21T10:15:13.860Z,18.87
2019-02-21T10:17:42.277Z,22.17
2019-02-21T10:20:13.084Z,22.50
2019-02-21T10:22:41.911Z,21.30
2019-02-21T10:25:18.803Z,22.60
2019-02-21T10:27:47.318Z,21.20
2019-02-21T10:30:18.079Z,19.23
2019-02-21T10:32:46.497Z,22.80
2019-02-21T10:35:14.995Z,19.43
2019-02-21T10:37:43.410Z,18.37
2019-02-21T10:40:13.965Z,18.33
2019-02-21T10:42:42.580Z,22.30
2019-02-21T10:45:12.211Z,19.33
2019-02-21T10:47:40.634Z,18.40
2019-02-21T10:50:16.576Z,21.80
2019-02-21T10:52:45.005Z,20.07
2019-02-21T10:55:14.065Z,18.43
2019-02-21T10:57:45.172Z,22.80
2019-02-21T11:00:18.259Z,18.53
2019-02-21T11:02:46.360Z,20.27
2019-02-21T11:05:14.843Z,15.90
2019-02-21T11:07:43.292Z,25.33
2019-02-21T11:10:14.519Z,18.30
2019-02-21T11:12:42.970Z,20.77
2019-02-21T11:15:13.643Z,18.20
2019-02-21T11:17:42.070Z,16.53
2019-02-21T11:20:13.483Z,19.10
2019-02-21T11:22:42.273Z,16.60
2019-02-21T11:25:11.936Z,19.77
2019-02-21T11:27:40.106Z,19.97
2019-02-21T11:30:11.770Z,19.07
2019-02-21T11:32:40.194Z,19.17
2019-02-21T11:35:08.776Z,20.17
2019-02-21T11:37:43.267Z,24.70
2019-02-21T11:40:09.778Z,16.93
2019-02-21T11:42:37.994Z,16.27
2019-02-21T11:45:12.237Z,19.93
2019-02-21T11:47:40.662Z,17.97
2019-02-21T11:50:12.164Z,21.20
2019-02-21T11:52:40.594Z,16.67
2019-02-21T11:55:11.828Z,22.50
2019-02-21T11:57:39.904Z,19.80
2019-02-21T12:00:11.441Z,16.93
2019-02-21T12:02:39.861Z,18.40
2019-02-21T12:05:17.076Z,18.63
2019-02-21T12:07:44.546Z,17.90
2019-02-21T12:10:13.318Z,16.43
2019-02-21T12:12:41.737Z,16.90
2019-02-21T12:15:12.764Z,17.50
2019-02-21T12:17:42.871Z,16.97
2019-02-21T12:20:16.844Z,14.17
2019-02-21T12:22:45.250Z,12.63
2019-02-21T12:25:18.592Z,13.17
2019-02-21T12:27:47.074Z,16.03
2019-02-21T12:30:17.550Z,14.07
2019-02-21T12:32:46.229Z,15.73
2019-02-21T12:35:14.797Z,15.67
2019-02-21T12:37:43.219Z,15.27
2019-02-21T12:40:14.460Z,17.37
2019-02-21T12:42:42.901Z,13.33
2019-02-21T12:45:12.169Z,18.63
2019-02-21T12:47:49.663Z,16.83
2019-02-21T12:50:11.981Z,13.73
2019-02-21T12:52:59.644Z,15.33
2019-02-21T12:55:31.586Z,16.57
2019-02-21T12:57:57.889Z,19.30
2019-02-21T13:00:26.322Z,18.57
2019-02-21T13:02:54.746Z,20.30
2019-02-21T13:05:23.585Z,15.43
2019-02-21T13:07:52.009Z,15.17
2019-02-21T13:10:24.414Z,18.63
2019-02-21T13:12:52.974Z,16.17
2019-02-21T13:15:21.421Z,15.47
2019-02-21T13:17:51.112Z,17.07
2019-02-21T13:20:19.746Z,12.87
2019-02-21T13:22:48.179Z,14.03
2019-02-21T13:25:18.143Z,13.47
2019-02-21T13:27:46.572Z,15.40
2019-02-21T13:30:18.502Z,14.67
2019-02-21T13:32:46.934Z,15.03
2019-02-21T13:35:15.695Z,16.80
2019-02-21T13:37:44.117Z,18.83
2019-02-21T13:40:16.427Z,18.13
2019-02-21T13:42:44.914Z,13.07
2019-02-21T13:45:17.599Z,14.30
2019-02-21T13:47:45.597Z,16.77
2019-02-21T13:50:18.131Z,16.60
2019-02-21T13:52:46.572Z,18.63
2019-02-21T13:55:15.522Z,19.87
2019-02-21T13:57:43.970Z,16.37
2019-02-21T14:00:20.434Z,24.73
2019-02-21T14:02:48.848Z,13.73
2019-02-21T14:05:17.284Z,14.90
2019-02-21T14:07:45.704Z,15.93
2019-02-21T14:10:14.665Z,16.93
2019-02-21T14:12:43.093Z,18.13
2019-02-21T14:15:28.641Z,18.27
2019-02-21T14:17:57.064Z,16.70
2019-02-21T14:20:25.506Z,16.77
2019-02-21T14:22:54.211Z,9.97
2019-02-21T14:25:22.631Z,8.50
2019-02-21T14:27:51.378Z,8.87
2019-02-21T14:30:21.234Z,8.93
2019-02-21T14:32:49.663Z,14.33
2019-02-21T14:35:18.241Z,17.13
2019-02-21T14:37:46.674Z,9.67
2019-02-21T14:40:16.230Z,5.73
2019-02-21T14:42:44.714Z,9.60
2019-02-21T14:45:20.804Z,10.03
2019-02-21T14:47:49.225Z,6.50
2019-02-21T14:50:18.758Z,6.27
2019-02-21T14:52:47.556Z,11.40
2019-02-21T14:55:17.120Z,9.30
2019-02-21T14:57:45.528Z,6.70
2019-02-21T15:00:19.768Z,10.00
2019-02-21T15:02:48.397Z,6.00
2019-02-21T15:05:17.413Z,10.13
2019-02-21T15:07:45.837Z,10.30
2019-02-21T15:10:15.237Z,9.70
2019-02-21T15:12:43.700Z,7.50
2019-02-21T15:15:30.230Z,6.00
2019-02-21T15:18:07.004Z,9.93
2019-02-21T15:20:36.669Z,5.80
2019-02-21T15:22:58.947Z,11.40
2019-02-21T15:25:27.384Z,8.23
2019-02-21T15:27:55.799Z,7.23
2019-02-21T15:30:25.826Z,9.70
2019-02-21T15:32:54.269Z,8.77
2019-02-21T15:35:22.685Z,5.90
2019-02-21T15:37:51.109Z,8.57
2019-02-21T15:40:19.524Z,12.03
2019-02-21T15:42:47.945Z,11.20
2019-02-21T15:45:26.809Z,8.67
2019-02-21T15:47:55.512Z,9.87
2019-02-21T15:50:23.927Z,8.33
2019-02-21T15:52:54.197Z,9.23
2019-02-21T15:55:23.924Z,9.77
2019-02-21T15:58:03.380Z,6.77
2019-02-21T16:00:24.070Z,11.80
2019-02-21T16:02:52.496Z,10.17
2019-02-21T16:05:20.907Z,8.63
2019-02-21T16:07:49.440Z,10.97
2019-02-21T16:10:28.002Z,8.17
2019-02-21T16:12:56.926Z,10.10
2019-02-21T16:15:25.697Z,10.23
2019-02-21T16:17:54.134Z,8.97
2019-02-21T16:20:22.723Z,7.33
2019-02-21T16:22:51.193Z,12.07
2019-02-21T16:25:24.690Z,12.40
2019-02-21T16:27:55.280Z,11.07
2019-02-21T16:30:23.290Z,7.90
2019-02-21T16:32:51.742Z,7.63
2019-02-21T16:35:20.169Z,9.47
2019-02-21T16:37:48.587Z,10.07
2019-02-21T16:40:18.347Z,12.37
2019-02-21T16:42:46.766Z,10.73
2019-02-21T16:45:19.414Z,16.70
2019-02-21T16:47:47.818Z,12.47
2019-02-21T16:50:16.248Z,12.60
2019-02-21T16:52:44.730Z,11.40
2019-02-21T16:55:21.165Z,13.67
2019-02-21T16:57:49.578Z,12.53
2019-02-21T17:00:24.185Z,14.27
2019-02-21T17:02:52.601Z,15.07
2019-02-21T17:05:21.020Z,13.43
2019-02-21T17:07:49.433Z,14.80
2019-02-21T17:10:18.029Z,16.30
2019-02-21T17:12:59.076Z,9.93
2019-02-21T17:15:27.565Z,12.13
2019-02-21T17:17:55.973Z,15.03
2019-02-21T17:20:25.136Z,10.77
2019-02-21T17:22:53.557Z,14.27
2019-02-21T17:25:21.978Z,14.00
2019-02-21T17:27:50.673Z,11.47
2019-02-21T17:30:39.970Z,14.53
2019-02-21T17:33:08.447Z,12.27
2019-02-21T17:35:36.874Z,12.77
2019-02-21T17:38:05.293Z,13.60
2019-02-21T17:40:33.713Z,15.80
2019-02-21T17:43:02.121Z,11.00
2019-02-21T17:45:30.532Z,16.77
2019-02-21T17:47:58.968Z,17.63
2019-02-21T17:50:27.445Z,14.13
2019-02-21T17:52:55.873Z,14.60
2019-02-21T17:55:24.299Z,18.53
2019-02-21T17:57:52.714Z,18.20
2019-02-21T18:00:24.318Z,23.77
2019-02-21T18:02:52.742Z,18.67
2019-02-21T18:05:21.170Z,23.83
2019-02-21T18:07:49.606Z,18.93
2019-02-21T18:10:18.569Z,16.87
2019-02-21T18:12:47.045Z,20.13
2019-02-21T18:15:16.809Z,19.73
2019-02-21T18:17:45.493Z,15.90
2019-02-21T18:20:15.414Z,17.80
2019-02-21T18:22:43.930Z,19.13
2019-02-21T18:25:27.421Z,19.03
2019-02-21T18:27:55.862Z,16.17
2019-02-21T18:30:24.591Z,14.00
2019-02-21T18:32:53.012Z,15.63
2019-02-21T18:35:21.752Z,16.97
2019-02-21T18:37:50.176Z,18.37
2019-02-21T18:40:21.302Z,20.27
2019-02-21T18:42:49.722Z,18.33
2019-02-21T18:45:18.145Z,18.23
2019-02-21T18:47:46.572Z,15.60
2019-02-21T18:50:15.555Z,21.37
2019-02-21T18:52:44.069Z,18.83
2019-02-21T18:55:12.766Z,15.97
2019-02-21T18:57:41.182Z,19.60
2019-02-21T19:00:22.488Z,17.77
2019-02-21T19:02:50.915Z,24.43
2019-02-21T19:05:19.881Z,15.60
2019-02-21T19:07:58.506Z,17.10
2019-02-21T19:10:19.803Z,17.90
2019-02-21T19:12:48.216Z,16.37
2019-02-21T19:15:18.966Z,19.90
2019-02-21T19:17:47.530Z,18.40
2019-02-21T19:20:17.493Z,16.60
2019-02-21T19:22:45.987Z,18.47
2019-02-21T19:25:14.976Z,20.70
2019-02-21T19:27:43.405Z,19.67
2019-02-21T19:30:20.496Z,20.17
2019-02-21T19:32:49.090Z,21.00
2019-02-21T19:35:17.573Z,17.90
2019-02-21T19:37:46.128Z,21.03
2019-02-21T19:40:15.172Z,22.60
2019-02-21T19:42:44.029Z,22.57
2019-02-21T19:45:13.226Z,19.07
2019-02-21T19:47:41.755Z,22.20
2019-02-21T19:50:10.605Z,23.83
2019-02-21T19:52:39.241Z,18.03
2019-02-21T19:55:09.781Z,20.37
2019-02-21T19:57:38.436Z,19.23
2019-02-21T20:00:10.042Z,21.37
2019-02-21T20:02:38.581Z,21.47
2019-02-21T20:05:07.483Z,20.00
2019-02-21T20:07:36.239Z,18.50
2019-02-21T20:10:06.898Z,21.47
2019-02-21T20:12:35.338Z,19.20
2019-02-21T20:15:05.226Z,20.37
2019-02-21T20:17:33.721Z,23.37
2019-02-21T20:20:02.263Z,22.00
2019-02-21T20:22:30.697Z,31.37
2019-02-21T20:24:59.226Z,31.60
2019-02-21T20:27:27.812Z,23.30
2019-02-21T20:29:56.631Z,29.93
2019-02-21T20:32:25.122Z,29.13
2019-02-21T20:34:53.809Z,23.27
2019-02-21T20:37:22.765Z,22.07
2019-02-21T20:39:51.217Z,21.47
2019-02-21T20:42:19.680Z,19.67
2019-02-21T20:44:48.240Z,21.63
2019-02-21T20:47:16.826Z,23.67
2019-02-21T20:49:45.373Z,24.20
2019-02-21T20:52:13.960Z,21.60
2019-02-21T20:54:42.841Z,23.37
2019-02-21T20:57:11.432Z,21.83
2019-02-21T20:59:39.962Z,24.63
2019-02-21T21:02:08.452Z,20.50
2019-02-21T21:04:36.967Z,22.20
2019-02-21T21:07:05.457Z,21.70
2019-02-21T21:09:34.099Z,31.40
2019-02-21T21:12:02.645Z,28.27
2019-02-21T21:14:31.070Z,32.00
2019-02-21T21:16:59.505Z,25.03
2019-02-21T21:19:27.980Z,25.90
2019-02-21T21:21:56.503Z,28.30
2019-02-21T21:24:25.056Z,24.67
2019-02-21T21:26:53.757Z,24.60
2019-02-21T21:29:22.251Z,26.10
2019-02-21T21:31:50.673Z,24.37
2019-02-21T21:34:19.102Z,22.83
2019-02-21T21:36:47.783Z,26.23
2019-02-21T21:39:16.201Z,26.50
2019-02-21T21:41:44.623Z,23.00
2019-02-21T21:44:13.049Z,21.63
2019-02-21T21:46:41.522Z,23.00
2019-02-21T21:49:09.970Z,24.83
2019-02-21T21:51:38.387Z,19.73
2019-02-21T21:54:06.822Z,21.10
2019-02-21T21:56:35.534Z,21.40
2019-02-21T21:59:03.966Z,23.80
2019-02-21T22:01:32.378Z,21.73
2019-02-21T22:04:00.794Z,21.17
2019-02-21T22:06:29.214Z,20.53
2019-02-21T22:09:04.424Z,24.83
2019-02-21T22:11:27.808Z,22.73
2019-02-21T22:13:56.245Z,22.53
2019-02-21T22:16:24.661Z,23.50
2019-02-21T22:18:53.086Z,20.57
2019-02-21T22:21:21.492Z,21.47
2019-02-21T22:23:49.922Z,21.27
2019-02-21T22:26:18.338Z,20.30
2019-02-21T22:28:46.757Z,24.93
2019-02-21T22:31:15.181Z,20.43
2019-02-21T22:33:43.603Z,19.73
2019-02-21T22:36:12.039Z,22.30
2019-02-21T22:38:41.173Z,18.17
2019-02-21T22:41:09.609Z,19.30
2019-02-21T22:43:38.033Z,24.70
2019-02-21T22:46:06.446Z,25.40
2019-02-21T22:48:34.885Z,23.97
2019-02-21T22:51:03.289Z,20.33
2019-02-21T22:53:31.720Z,19.87
2019-02-21T22:56:00.135Z,19.03
2019-02-21T22:58:28.899Z,24.20
2019-02-21T23:01:00.883Z,24.27
2019-02-21T23:03:44.557Z,22.07
2019-02-21T23:06:40.268Z,22.07
2019-02-21T23:09:10.405Z,22.10
2019-02-21T23:11:38.828Z,21.67
2019-02-21T23:14:07.320Z,18.33
2019-02-21T23:16:35.729Z,25.83
2019-02-21T23:19:04.176Z,24.40
2019-02-21T23:21:32.620Z,26.23
2019-02-21T23:24:01.184Z,26.53
2019-02-21T23:26:29.595Z,24.40
2019-02-21T23:28:58.093Z,21.53
2019-02-21T23:31:27.337Z,26.80
2019-02-21T23:33:57.409Z,21.50
2019-02-21T23:36:27.010Z,25.10
2019-02-21T23:38:55.428Z,25.80
2019-02-21T23:41:24.172Z,26.20
2019-02-21T23:43:52.858Z,25.50
2019-02-21T23:46:21.281Z,24.97
2019-02-21T23:48:49.820Z,21.70
2019-02-21T23:51:18.253Z,26.80
2019-02-21T23:53:46.666Z,24.57
2019-02-21T23:56:15.112Z,25.47
2019-02-21T23:58:43.508Z,21.20
